sensor_id;sensor_type;location;lat;lon;timestamp;P1;durP1;ratioP1;P2;durP2;ratioP2
4839;SDS011;2434;48.486;7.964;2023-07-30T00:00:33;4.37;;;3.03;;
4839;SDS011;2434;48.486;7.964;2023-07-30T00:03:02;5.17;;;3.40;;
4839;SDS011;2434;48.486;7.964;2023-07-30T00:05:31;5.17;;;3.00;;
4839;SDS011;2434;48.486;7.964;2023-07-30T00:07:59;3.87;;;2.87;;
4839;SDS011;2434;48.486;7.964;2023-07-30T00:10:27;5.17;;;3.10;;
4839;SDS011;2434;48.486;7.964;2023-07-30T00:12:55;9.33;;;2.90;;
4839;SDS011;2434;48.486;7.964;2023-07-30T00:15:24;4.50;;;3.10;;
4839;SDS011;2434;48.486;7.964;2023-07-30T00:17:54;3.97;;;2.60;;
4839;SDS011;2434;48.486;7.964;2023-07-30T00:20:22;5.50;;;3.00;;
4839;SDS011;2434;48.486;7.964;2023-07-30T00:22:53;5.53;;;3.27;;
4839;SDS011;2434;48.486;7.964;2023-07-30T00:25:21;4.60;;;3.17;;
4839;SDS011;2434;48.486;7.964;2023-07-30T00:27:50;4.40;;;3.10;;
4839;SDS011;2434;48.486;7.964;2023-07-30T00:30:18;5.73;;;2.47;;
4839;SDS011;2434;48.486;7.964;2023-07-30T00:32:46;5.23;;;3.20;;
4839;SDS011;2434;48.486;7.964;2023-07-30T00:35:16;4.93;;;2.77;;
4839;SDS011;2434;48.486;7.964;2023-07-30T00:37:44;7.80;;;3.23;;
4839;SDS011;2434;48.486;7.964;2023-07-30T00:40:13;3.80;;;2.73;;
4839;SDS011;2434;48.486;7.964;2023-07-30T00:42:41;6.80;;;2.77;;
4839;SDS011;2434;48.486;7.964;2023-07-30T00:45:09;4.90;;;3.07;;
4839;SDS011;2434;48.486;7.964;2023-07-30T00:47:38;6.37;;;3.40;;
4839;SDS011;2434;48.486;7.964;2023-07-30T00:50:07;4.80;;;2.80;;
4839;SDS011;2434;48.486;7.964;2023-07-30T00:52:37;4.50;;;2.90;;
4839;SDS011;2434;48.486;7.964;2023-07-30T00:55:06;3.80;;;2.77;;
4839;SDS011;2434;48.486;7.964;2023-07-30T00:57:35;7.57;;;2.90;;
4839;SDS011;2434;48.486;7.964;2023-07-30T01:00:05;3.40;;;2.63;;
4839;SDS011;2434;48.486;7.964;2023-07-30T01:02:36;5.17;;;3.03;;
4839;SDS011;2434;48.486;7.964;2023-07-30T01:05:04;3.47;;;2.23;;
4839;SDS011;2434;48.486;7.964;2023-07-30T01:07:33;4.73;;;3.03;;
4839;SDS011;2434;48.486;7.964;2023-07-30T01:10:03;5.07;;;2.77;;
4839;SDS011;2434;48.486;7.964;2023-07-30T01:12:32;3.13;;;2.37;;
4839;SDS011;2434;48.486;7.964;2023-07-30T01:15:04;4.93;;;2.13;;
4839;SDS011;2434;48.486;7.964;2023-07-30T01:17:33;5.30;;;2.70;;
4839;SDS011;2434;48.486;7.964;2023-07-30T01:20:01;5.00;;;3.20;;
4839;SDS011;2434;48.486;7.964;2023-07-30T01:22:32;5.57;;;2.83;;
4839;SDS011;2434;48.486;7.964;2023-07-30T01:25:00;4.20;;;3.17;;
4839;SDS011;2434;48.486;7.964;2023-07-30T01:27:29;4.50;;;3.30;;
4839;SDS011;2434;48.486;7.964;2023-07-30T01:30:03;4.30;;;2.63;;
4839;SDS011;2434;48.486;7.964;2023-07-30T01:32:35;8.43;;;2.80;;
4839;SDS011;2434;48.486;7.964;2023-07-30T01:35:05;5.93;;;3.00;;
4839;SDS011;2434;48.486;7.964;2023-07-30T01:37:37;3.70;;;2.47;;
4839;SDS011;2434;48.486;7.964;2023-07-30T01:40:07;10.80;;;2.70;;
4839;SDS011;2434;48.486;7.964;2023-07-30T01:42:37;3.07;;;2.40;;
4839;SDS011;2434;48.486;7.964;2023-07-30T01:45:06;12.10;;;3.60;;
4839;SDS011;2434;48.486;7.964;2023-07-30T01:47:34;3.53;;;2.20;;
4839;SDS011;2434;48.486;7.964;2023-07-30T01:50:03;4.90;;;3.20;;
4839;SDS011;2434;48.486;7.964;2023-07-30T01:52:32;6.63;;;2.27;;
4839;SDS011;2434;48.486;7.964;2023-07-30T01:55:02;3.20;;;2.20;;
4839;SDS011;2434;48.486;7.964;2023-07-30T01:57:30;3.93;;;2.60;;
4839;SDS011;2434;48.486;7.964;2023-07-30T01:59:59;3.70;;;2.40;;
4839;SDS011;2434;48.486;7.964;2023-07-30T02:02:27;5.40;;;2.93;;
4839;SDS011;2434;48.486;7.964;2023-07-30T02:04:56;5.47;;;2.30;;
4839;SDS011;2434;48.486;7.964;2023-07-30T02:07:24;4.83;;;2.40;;
4839;SDS011;2434;48.486;7.964;2023-07-30T02:09:54;7.50;;;2.70;;
4839;SDS011;2434;48.486;7.964;2023-07-30T02:12:23;3.90;;;2.50;;
4839;SDS011;2434;48.486;7.964;2023-07-30T02:14:52;4.80;;;2.80;;
4839;SDS011;2434;48.486;7.964;2023-07-30T02:17:20;4.80;;;2.47;;
4839;SDS011;2434;48.486;7.964;2023-07-30T02:19:48;4.90;;;2.73;;
4839;SDS011;2434;48.486;7.964;2023-07-30T02:22:17;3.60;;;2.40;;
4839;SDS011;2434;48.486;7.964;2023-07-30T02:24:45;5.20;;;2.50;;
4839;SDS011;2434;48.486;7.964;2023-07-30T02:27:14;3.70;;;2.30;;
4839;SDS011;2434;48.486;7.964;2023-07-30T02:29:44;4.27;;;2.80;;
4839;SDS011;2434;48.486;7.964;2023-07-30T02:32:12;4.30;;;2.80;;
4839;SDS011;2434;48.486;7.964;2023-07-30T02:34:40;3.87;;;2.33;;
4839;SDS011;2434;48.486;7.964;2023-07-30T02:37:09;3.67;;;2.60;;
4839;SDS011;2434;48.486;7.964;2023-07-30T02:39:37;5.63;;;2.37;;
4839;SDS011;2434;48.486;7.964;2023-07-30T02:42:05;5.33;;;2.63;;
4839;SDS011;2434;48.486;7.964;2023-07-30T02:44:34;4.20;;;2.60;;
4839;SDS011;2434;48.486;7.964;2023-07-30T02:47:04;3.70;;;2.40;;
4839;SDS011;2434;48.486;7.964;2023-07-30T02:49:32;2.73;;;2.03;;
4839;SDS011;2434;48.486;7.964;2023-07-30T02:52:00;3.33;;;2.10;;
4839;SDS011;2434;48.486;7.964;2023-07-30T02:54:29;4.60;;;2.37;;
4839;SDS011;2434;48.486;7.964;2023-07-30T02:56:57;5.93;;;2.77;;
4839;SDS011;2434;48.486;7.964;2023-07-30T02:59:26;3.33;;;2.20;;
4839;SDS011;2434;48.486;7.964;2023-07-30T03:01:55;3.20;;;2.40;;
4839;SDS011;2434;48.486;7.964;2023-07-30T03:04:25;3.10;;;2.20;;
4839;SDS011;2434;48.486;7.964;2023-07-30T03:06:53;4.37;;;2.63;;
4839;SDS011;2434;48.486;7.964;2023-07-30T03:09:22;3.93;;;2.37;;
4839;SDS011;2434;48.486;7.964;2023-07-30T03:11:50;3.43;;;2.33;;
4839;SDS011;2434;48.486;7.964;2023-07-30T03:14:20;5.33;;;2.60;;
4839;SDS011;2434;48.486;7.964;2023-07-30T03:16:48;4.23;;;2.30;;
4839;SDS011;2434;48.486;7.964;2023-07-30T03:19:17;4.60;;;2.17;;
4839;SDS011;2434;48.486;7.964;2023-07-30T03:21:47;3.73;;;2.40;;
4839;SDS011;2434;48.486;7.964;2023-07-30T03:24:15;3.47;;;2.17;;
4839;SDS011;2434;48.486;7.964;2023-07-30T03:26:44;4.27;;;2.10;;
4839;SDS011;2434;48.486;7.964;2023-07-30T03:29:12;5.07;;;2.50;;
4839;SDS011;2434;48.486;7.964;2023-07-30T03:31:41;3.13;;;1.67;;
4839;SDS011;2434;48.486;7.964;2023-07-30T03:34:09;9.93;;;3.03;;
4839;SDS011;2434;48.486;7.964;2023-07-30T03:36:38;5.57;;;2.43;;
4839;SDS011;2434;48.486;7.964;2023-07-30T03:39:08;3.43;;;2.30;;
4839;SDS011;2434;48.486;7.964;2023-07-30T03:41:37;3.60;;;2.17;;
4839;SDS011;2434;48.486;7.964;2023-07-30T03:44:05;3.20;;;2.07;;
4839;SDS011;2434;48.486;7.964;2023-07-30T03:46:34;3.00;;;2.07;;
4839;SDS011;2434;48.486;7.964;2023-07-30T03:49:02;3.60;;;2.20;;
4839;SDS011;2434;48.486;7.964;2023-07-30T03:51:31;3.63;;;1.77;;
4839;SDS011;2434;48.486;7.964;2023-07-30T03:54:00;4.07;;;2.30;;
4839;SDS011;2434;48.486;7.964;2023-07-30T03:56:30;4.07;;;2.63;;
4839;SDS011;2434;48.486;7.964;2023-07-30T03:58:59;3.90;;;2.43;;
4839;SDS011;2434;48.486;7.964;2023-07-30T04:01:27;3.97;;;2.63;;
4839;SDS011;2434;48.486;7.964;2023-07-30T04:03:56;4.40;;;2.23;;
4839;SDS011;2434;48.486;7.964;2023-07-30T04:06:25;3.17;;;2.20;;
4839;SDS011;2434;48.486;7.964;2023-07-30T04:08:54;6.40;;;2.40;;
4839;SDS011;2434;48.486;7.964;2023-07-30T04:11:22;6.33;;;2.53;;
4839;SDS011;2434;48.486;7.964;2023-07-30T04:13:52;7.17;;;2.70;;
4839;SDS011;2434;48.486;7.964;2023-07-30T04:16:21;3.50;;;2.37;;
4839;SDS011;2434;48.486;7.964;2023-07-30T04:18:50;4.53;;;2.90;;
4839;SDS011;2434;48.486;7.964;2023-07-30T04:21:19;4.00;;;2.43;;
4839;SDS011;2434;48.486;7.964;2023-07-30T04:23:47;6.07;;;2.70;;
4839;SDS011;2434;48.486;7.964;2023-07-30T04:26:16;4.47;;;3.03;;
4839;SDS011;2434;48.486;7.964;2023-07-30T04:28:45;4.30;;;2.80;;
4839;SDS011;2434;48.486;7.964;2023-07-30T04:31:15;6.10;;;2.93;;
4839;SDS011;2434;48.486;7.964;2023-07-30T04:33:43;5.03;;;3.07;;
4839;SDS011;2434;48.486;7.964;2023-07-30T04:36:12;8.40;;;2.83;;
4839;SDS011;2434;48.486;7.964;2023-07-30T04:38:42;4.30;;;2.60;;
4839;SDS011;2434;48.486;7.964;2023-07-30T04:41:10;5.00;;;2.93;;
4839;SDS011;2434;48.486;7.964;2023-07-30T04:43:43;3.40;;;2.40;;
4839;SDS011;2434;48.486;7.964;2023-07-30T04:46:11;4.90;;;3.20;;
4839;SDS011;2434;48.486;7.964;2023-07-30T04:48:41;4.60;;;3.10;;
4839;SDS011;2434;48.486;7.964;2023-07-30T04:51:12;4.70;;;2.97;;
4839;SDS011;2434;48.486;7.964;2023-07-30T04:53:40;3.90;;;2.17;;
4839;SDS011;2434;48.486;7.964;2023-07-30T04:56:08;4.40;;;2.97;;
4839;SDS011;2434;48.486;7.964;2023-07-30T04:58:36;17.03;;;3.27;;
4839;SDS011;2434;48.486;7.964;2023-07-30T05:01:05;3.70;;;2.40;;
4839;SDS011;2434;48.486;7.964;2023-07-30T05:03:33;4.20;;;2.80;;
4839;SDS011;2434;48.486;7.964;2023-07-30T05:06:03;4.60;;;2.77;;
4839;SDS011;2434;48.486;7.964;2023-07-30T05:08:31;4.77;;;2.70;;
4839;SDS011;2434;48.486;7.964;2023-07-30T05:11:00;3.57;;;2.53;;
4839;SDS011;2434;48.486;7.964;2023-07-30T05:13:28;4.23;;;2.00;;
4839;SDS011;2434;48.486;7.964;2023-07-30T05:15:56;3.40;;;2.20;;
4839;SDS011;2434;48.486;7.964;2023-07-30T05:18:25;3.47;;;2.40;;
4839;SDS011;2434;48.486;7.964;2023-07-30T05:20:53;6.03;;;2.30;;
4839;SDS011;2434;48.486;7.964;2023-07-30T05:23:23;4.50;;;2.20;;
4839;SDS011;2434;48.486;7.964;2023-07-30T05:25:51;3.40;;;2.70;;
4839;SDS011;2434;48.486;7.964;2023-07-30T05:28:20;4.30;;;2.57;;
4839;SDS011;2434;48.486;7.964;2023-07-30T05:30:48;4.60;;;2.73;;
4839;SDS011;2434;48.486;7.964;2023-07-30T05:33:16;4.50;;;2.23;;
4839;SDS011;2434;48.486;7.964;2023-07-30T05:35:45;4.80;;;2.47;;
4839;SDS011;2434;48.486;7.964;2023-07-30T05:38:14;8.17;;;2.50;;
4839;SDS011;2434;48.486;7.964;2023-07-30T05:40:44;6.93;;;2.87;;
4839;SDS011;2434;48.486;7.964;2023-07-30T05:43:12;4.00;;;2.50;;
4839;SDS011;2434;48.486;7.964;2023-07-30T05:45:40;3.83;;;2.50;;
4839;SDS011;2434;48.486;7.964;2023-07-30T05:48:09;6.73;;;2.67;;
4839;SDS011;2434;48.486;7.964;2023-07-30T05:50:37;5.03;;;2.70;;
4839;SDS011;2434;48.486;7.964;2023-07-30T05:53:05;6.10;;;3.10;;
4839;SDS011;2434;48.486;7.964;2023-07-30T05:55:34;4.37;;;2.40;;
4839;SDS011;2434;48.486;7.964;2023-07-30T05:58:04;4.10;;;2.33;;
4839;SDS011;2434;48.486;7.964;2023-07-30T06:00:32;5.10;;;3.30;;
4839;SDS011;2434;48.486;7.964;2023-07-30T06:03:00;7.53;;;3.30;;
4839;SDS011;2434;48.486;7.964;2023-07-30T06:05:29;4.93;;;2.63;;
4839;SDS011;2434;48.486;7.964;2023-07-30T06:07:58;4.30;;;2.87;;
4839;SDS011;2434;48.486;7.964;2023-07-30T06:10:33;7.00;;;3.27;;
4839;SDS011;2434;48.486;7.964;2023-07-30T06:13:04;4.43;;;2.60;;
4839;SDS011;2434;48.486;7.964;2023-07-30T06:15:32;4.20;;;2.90;;
4839;SDS011;2434;48.486;7.964;2023-07-30T06:18:01;4.20;;;2.60;;
4839;SDS011;2434;48.486;7.964;2023-07-30T06:20:30;3.70;;;2.60;;
4839;SDS011;2434;48.486;7.964;2023-07-30T06:22:58;4.50;;;2.60;;
4839;SDS011;2434;48.486;7.964;2023-07-30T06:25:26;4.97;;;2.80;;
4839;SDS011;2434;48.486;7.964;2023-07-30T06:27:55;7.30;;;3.20;;
4839;SDS011;2434;48.486;7.964;2023-07-30T06:30:26;5.93;;;3.10;;
4839;SDS011;2434;48.486;7.964;2023-07-30T06:32:54;3.97;;;2.70;;
4839;SDS011;2434;48.486;7.964;2023-07-30T06:35:23;4.93;;;2.63;;
4839;SDS011;2434;48.486;7.964;2023-07-30T06:37:51;6.50;;;2.90;;
4839;SDS011;2434;48.486;7.964;2023-07-30T06:40:19;5.53;;;2.97;;
4839;SDS011;2434;48.486;7.964;2023-07-30T06:42:47;5.43;;;3.40;;
4839;SDS011;2434;48.486;7.964;2023-07-30T06:45:16;7.20;;;3.60;;
4839;SDS011;2434;48.486;7.964;2023-07-30T06:47:45;5.63;;;2.70;;
4839;SDS011;2434;48.486;7.964;2023-07-30T06:50:14;5.43;;;3.30;;
4839;SDS011;2434;48.486;7.964;2023-07-30T06:52:42;4.20;;;2.70;;
4839;SDS011;2434;48.486;7.964;2023-07-30T06:55:10;4.87;;;3.20;;
4839;SDS011;2434;48.486;7.964;2023-07-30T06:57:38;8.30;;;2.90;;
4839;SDS011;2434;48.486;7.964;2023-07-30T07:00:07;5.23;;;3.00;;
4839;SDS011;2434;48.486;7.964;2023-07-30T07:02:36;4.50;;;3.00;;
4839;SDS011;2434;48.486;7.964;2023-07-30T07:05:06;4.40;;;2.70;;
4839;SDS011;2434;48.486;7.964;2023-07-30T07:07:34;4.37;;;2.67;;
4839;SDS011;2434;48.486;7.964;2023-07-30T07:10:03;5.23;;;2.70;;
4839;SDS011;2434;48.486;7.964;2023-07-30T07:12:31;3.70;;;2.70;;
4839;SDS011;2434;48.486;7.964;2023-07-30T07:15:00;6.17;;;2.70;;
4839;SDS011;2434;48.486;7.964;2023-07-30T07:17:28;5.17;;;2.83;;
4839;SDS011;2434;48.486;7.964;2023-07-30T07:19:56;5.33;;;2.57;;
4839;SDS011;2434;48.486;7.964;2023-07-30T07:22:26;7.03;;;2.93;;
4839;SDS011;2434;48.486;7.964;2023-07-30T07:24:54;4.87;;;3.17;;
4839;SDS011;2434;48.486;7.964;2023-07-30T07:27:23;3.67;;;2.50;;
4839;SDS011;2434;48.486;7.964;2023-07-30T07:29:51;3.83;;;2.60;;
4839;SDS011;2434;48.486;7.964;2023-07-30T07:32:19;5.17;;;2.27;;
4839;SDS011;2434;48.486;7.964;2023-07-30T07:34:48;3.43;;;2.23;;
4839;SDS011;2434;48.486;7.964;2023-07-30T07:37:17;5.03;;;2.63;;
4839;SDS011;2434;48.486;7.964;2023-07-30T07:39:47;5.33;;;2.73;;
4839;SDS011;2434;48.486;7.964;2023-07-30T07:42:16;8.07;;;2.67;;
4839;SDS011;2434;48.486;7.964;2023-07-30T07:44:44;5.93;;;2.70;;
4839;SDS011;2434;48.486;7.964;2023-07-30T07:47:13;5.37;;;2.50;;
4839;SDS011;2434;48.486;7.964;2023-07-30T07:49:41;5.63;;;2.67;;
4839;SDS011;2434;48.486;7.964;2023-07-30T07:52:09;3.97;;;2.23;;
4839;SDS011;2434;48.486;7.964;2023-07-30T07:54:37;7.50;;;2.60;;
4839;SDS011;2434;48.486;7.964;2023-07-30T07:57:09;4.60;;;2.37;;
4839;SDS011;2434;48.486;7.964;2023-07-30T07:59:37;5.50;;;2.47;;
4839;SDS011;2434;48.486;7.964;2023-07-30T08:02:08;5.00;;;2.53;;
4839;SDS011;2434;48.486;7.964;2023-07-30T08:04:36;3.43;;;2.63;;
4839;SDS011;2434;48.486;7.964;2023-07-30T08:07:05;3.40;;;2.57;;
4839;SDS011;2434;48.486;7.964;2023-07-30T08:09:33;9.20;;;2.60;;
4839;SDS011;2434;48.486;7.964;2023-07-30T08:12:01;6.53;;;2.87;;
4839;SDS011;2434;48.486;7.964;2023-07-30T08:14:31;5.63;;;2.30;;
4839;SDS011;2434;48.486;7.964;2023-07-30T08:17:00;5.30;;;2.80;;
4839;SDS011;2434;48.486;7.964;2023-07-30T08:19:28;4.30;;;2.50;;
4839;SDS011;2434;48.486;7.964;2023-07-30T08:21:57;9.30;;;2.43;;
4839;SDS011;2434;48.486;7.964;2023-07-30T08:24:26;3.00;;;2.30;;
4839;SDS011;2434;48.486;7.964;2023-07-30T08:26:54;3.40;;;2.27;;
4839;SDS011;2434;48.486;7.964;2023-07-30T08:29:22;5.40;;;2.70;;
4839;SDS011;2434;48.486;7.964;2023-07-30T08:31:52;4.90;;;2.50;;
4839;SDS011;2434;48.486;7.964;2023-07-30T08:34:21;10.33;;;2.20;;
4839;SDS011;2434;48.486;7.964;2023-07-30T08:36:50;5.97;;;1.90;;
4839;SDS011;2434;48.486;7.964;2023-07-30T08:39:18;4.93;;;2.10;;
4839;SDS011;2434;48.486;7.964;2023-07-30T08:41:46;35.90;;;5.20;;
4839;SDS011;2434;48.486;7.964;2023-07-30T08:44:15;2.80;;;2.23;;
4839;SDS011;2434;48.486;7.964;2023-07-30T08:46:44;5.67;;;1.60;;
4839;SDS011;2434;48.486;7.964;2023-07-30T08:49:13;3.40;;;2.00;;
4839;SDS011;2434;48.486;7.964;2023-07-30T08:51:41;4.33;;;1.90;;
4839;SDS011;2434;48.486;7.964;2023-07-30T08:54:11;4.57;;;2.30;;
4839;SDS011;2434;48.486;7.964;2023-07-30T08:56:42;7.67;;;2.03;;
4839;SDS011;2434;48.486;7.964;2023-07-30T08:59:10;4.80;;;2.13;;
4839;SDS011;2434;48.486;7.964;2023-07-30T09:01:40;2.80;;;1.80;;
4839;SDS011;2434;48.486;7.964;2023-07-30T09:04:11;4.00;;;2.00;;
4839;SDS011;2434;48.486;7.964;2023-07-30T09:06:41;8.90;;;2.10;;
4839;SDS011;2434;48.486;7.964;2023-07-30T09:09:09;4.73;;;2.10;;
4839;SDS011;2434;48.486;7.964;2023-07-30T09:11:39;7.63;;;2.60;;
4839;SDS011;2434;48.486;7.964;2023-07-30T09:14:07;2.77;;;1.83;;
4839;SDS011;2434;48.486;7.964;2023-07-30T09:16:36;3.10;;;2.03;;
4839;SDS011;2434;48.486;7.964;2023-07-30T09:19:05;2.73;;;1.77;;
4839;SDS011;2434;48.486;7.964;2023-07-30T09:21:34;3.00;;;1.97;;
4839;SDS011;2434;48.486;7.964;2023-07-30T09:24:04;8.13;;;3.07;;
4839;SDS011;2434;48.486;7.964;2023-07-30T09:26:39;3.50;;;1.90;;
4839;SDS011;2434;48.486;7.964;2023-07-30T09:29:10;3.80;;;2.20;;
4839;SDS011;2434;48.486;7.964;2023-07-30T09:31:48;4.30;;;2.27;;
4839;SDS011;2434;48.486;7.964;2023-07-30T09:34:17;5.17;;;2.33;;
4839;SDS011;2434;48.486;7.964;2023-07-30T09:36:46;4.83;;;2.17;;
4839;SDS011;2434;48.486;7.964;2023-07-30T09:39:20;4.07;;;2.13;;
4839;SDS011;2434;48.486;7.964;2023-07-30T09:41:49;3.90;;;2.17;;
4839;SDS011;2434;48.486;7.964;2023-07-30T09:44:18;4.17;;;2.03;;
4839;SDS011;2434;48.486;7.964;2023-07-30T09:46:48;4.03;;;2.43;;
4839;SDS011;2434;48.486;7.964;2023-07-30T09:49:17;6.90;;;2.63;;
4839;SDS011;2434;48.486;7.964;2023-07-30T09:51:45;5.53;;;2.33;;
4839;SDS011;2434;48.486;7.964;2023-07-30T09:54:15;3.93;;;2.30;;
4839;SDS011;2434;48.486;7.964;2023-07-30T09:56:44;3.93;;;2.43;;
4839;SDS011;2434;48.486;7.964;2023-07-30T09:59:12;3.37;;;2.00;;
4839;SDS011;2434;48.486;7.964;2023-07-30T10:01:42;3.70;;;1.70;;
4839;SDS011;2434;48.486;7.964;2023-07-30T10:04:12;6.30;;;1.83;;
4839;SDS011;2434;48.486;7.964;2023-07-30T10:06:41;2.90;;;2.10;;
4839;SDS011;2434;48.486;7.964;2023-07-30T10:09:14;5.33;;;2.43;;
4839;SDS011;2434;48.486;7.964;2023-07-30T10:11:46;4.80;;;2.57;;
4839;SDS011;2434;48.486;7.964;2023-07-30T10:14:21;4.33;;;2.00;;
4839;SDS011;2434;48.486;7.964;2023-07-30T10:16:52;3.97;;;2.20;;
4839;SDS011;2434;48.486;7.964;2023-07-30T10:19:25;9.07;;;2.37;;
4839;SDS011;2434;48.486;7.964;2023-07-30T10:21:57;4.57;;;2.23;;
4839;SDS011;2434;48.486;7.964;2023-07-30T10:24:27;3.73;;;2.30;;
4839;SDS011;2434;48.486;7.964;2023-07-30T10:26:56;6.43;;;2.53;;
4839;SDS011;2434;48.486;7.964;2023-07-30T10:29:32;2.90;;;2.07;;
4839;SDS011;2434;48.486;7.964;2023-07-30T10:32:04;5.20;;;1.97;;
4839;SDS011;2434;48.486;7.964;2023-07-30T10:34:43;4.93;;;2.67;;
4839;SDS011;2434;48.486;7.964;2023-07-30T10:37:13;3.57;;;2.00;;
4839;SDS011;2434;48.486;7.964;2023-07-30T10:39:47;5.40;;;2.30;;
4839;SDS011;2434;48.486;7.964;2023-07-30T10:42:17;4.50;;;2.10;;
4839;SDS011;2434;48.486;7.964;2023-07-30T10:44:46;4.10;;;2.40;;
4839;SDS011;2434;48.486;7.964;2023-07-30T10:47:14;3.50;;;2.13;;
4839;SDS011;2434;48.486;7.964;2023-07-30T10:50:02;5.90;;;2.30;;
4839;SDS011;2434;48.486;7.964;2023-07-30T10:52:31;5.53;;;2.63;;
4839;SDS011;2434;48.486;7.964;2023-07-30T10:54:59;3.63;;;2.60;;
4839;SDS011;2434;48.486;7.964;2023-07-30T10:57:32;6.80;;;2.53;;
4839;SDS011;2434;48.486;7.964;2023-07-30T11:00:01;3.90;;;2.00;;
4839;SDS011;2434;48.486;7.964;2023-07-30T11:02:31;3.70;;;2.20;;
4839;SDS011;2434;48.486;7.964;2023-07-30T11:05:10;4.10;;;2.27;;
4839;SDS011;2434;48.486;7.964;2023-07-30T11:07:39;5.13;;;2.47;;
4839;SDS011;2434;48.486;7.964;2023-07-30T11:10:16;5.00;;;2.53;;
4839;SDS011;2434;48.486;7.964;2023-07-30T11:12:48;5.83;;;2.00;;
4839;SDS011;2434;48.486;7.964;2023-07-30T11:15:17;5.13;;;2.10;;
4839;SDS011;2434;48.486;7.964;2023-07-30T11:17:45;3.27;;;2.20;;
4839;SDS011;2434;48.486;7.964;2023-07-30T11:20:23;3.87;;;2.40;;
4839;SDS011;2434;48.486;7.964;2023-07-30T11:22:53;4.93;;;2.10;;
4839;SDS011;2434;48.486;7.964;2023-07-30T11:25:21;3.20;;;2.10;;
4839;SDS011;2434;48.486;7.964;2023-07-30T11:27:51;2.63;;;1.50;;
4839;SDS011;2434;48.486;7.964;2023-07-30T11:30:19;3.37;;;1.90;;
4839;SDS011;2434;48.486;7.964;2023-07-30T11:32:47;3.57;;;2.13;;
4839;SDS011;2434;48.486;7.964;2023-07-30T11:35:16;3.27;;;2.07;;
4839;SDS011;2434;48.486;7.964;2023-07-30T11:37:44;6.40;;;2.73;;
4839;SDS011;2434;48.486;7.964;2023-07-30T11:40:13;3.80;;;2.13;;
4839;SDS011;2434;48.486;7.964;2023-07-30T11:42:41;4.00;;;2.10;;
4839;SDS011;2434;48.486;7.964;2023-07-30T11:45:21;4.53;;;2.13;;
4839;SDS011;2434;48.486;7.964;2023-07-30T11:47:50;3.33;;;1.97;;
4839;SDS011;2434;48.486;7.964;2023-07-30T11:50:19;5.00;;;2.30;;
4839;SDS011;2434;48.486;7.964;2023-07-30T11:52:51;3.83;;;2.20;;
4839;SDS011;2434;48.486;7.964;2023-07-30T11:55:20;2.90;;;2.20;;
4839;SDS011;2434;48.486;7.964;2023-07-30T11:57:49;5.27;;;2.20;;
4839;SDS011;2434;48.486;7.964;2023-07-30T12:00:21;3.37;;;2.20;;
4839;SDS011;2434;48.486;7.964;2023-07-30T12:02:49;7.30;;;3.00;;
4839;SDS011;2434;48.486;7.964;2023-07-30T12:05:17;5.20;;;2.40;;
4839;SDS011;2434;48.486;7.964;2023-07-30T12:07:46;5.83;;;2.03;;
4839;SDS011;2434;48.486;7.964;2023-07-30T12:10:15;3.40;;;1.97;;
4839;SDS011;2434;48.486;7.964;2023-07-30T12:12:46;5.17;;;1.80;;
4839;SDS011;2434;48.486;7.964;2023-07-30T12:15:21;6.23;;;2.43;;
4839;SDS011;2434;48.486;7.964;2023-07-30T12:17:49;3.80;;;1.93;;
4839;SDS011;2434;48.486;7.964;2023-07-30T12:20:17;4.67;;;2.17;;
4839;SDS011;2434;48.486;7.964;2023-07-30T12:22:45;7.77;;;2.27;;
4839;SDS011;2434;48.486;7.964;2023-07-30T12:25:14;6.30;;;2.30;;
4839;SDS011;2434;48.486;7.964;2023-07-30T12:27:42;2.73;;;1.53;;
4839;SDS011;2434;48.486;7.964;2023-07-30T12:30:11;4.73;;;1.90;;
4839;SDS011;2434;48.486;7.964;2023-07-30T12:32:40;4.20;;;2.00;;
4839;SDS011;2434;48.486;7.964;2023-07-30T12:35:08;3.90;;;1.90;;
4839;SDS011;2434;48.486;7.964;2023-07-30T12:37:36;5.00;;;2.40;;
4839;SDS011;2434;48.486;7.964;2023-07-30T12:40:05;4.67;;;2.17;;
4839;SDS011;2434;48.486;7.964;2023-07-30T12:42:35;2.93;;;1.50;;
4839;SDS011;2434;48.486;7.964;2023-07-30T12:45:03;3.70;;;1.60;;
4839;SDS011;2434;48.486;7.964;2023-07-30T12:47:32;3.60;;;1.57;;
4839;SDS011;2434;48.486;7.964;2023-07-30T12:50:05;4.60;;;1.70;;
4839;SDS011;2434;48.486;7.964;2023-07-30T12:52:34;6.83;;;1.87;;
4839;SDS011;2434;48.486;7.964;2023-07-30T12:55:02;3.57;;;1.53;;
4839;SDS011;2434;48.486;7.964;2023-07-30T12:57:31;5.03;;;1.57;;
4839;SDS011;2434;48.486;7.964;2023-07-30T12:59:59;4.37;;;1.73;;
4839;SDS011;2434;48.486;7.964;2023-07-30T13:02:31;3.50;;;1.57;;
4839;SDS011;2434;48.486;7.964;2023-07-30T13:05:01;3.20;;;1.60;;
4839;SDS011;2434;48.486;7.964;2023-07-30T13:07:31;5.30;;;1.70;;
4839;SDS011;2434;48.486;7.964;2023-07-30T13:10:03;4.13;;;1.60;;
4839;SDS011;2434;48.486;7.964;2023-07-30T13:12:32;4.90;;;1.43;;
4839;SDS011;2434;48.486;7.964;2023-07-30T13:15:02;3.93;;;1.53;;
4839;SDS011;2434;48.486;7.964;2023-07-30T13:17:31;5.03;;;1.87;;
4839;SDS011;2434;48.486;7.964;2023-07-30T13:19:59;3.07;;;1.20;;
4839;SDS011;2434;48.486;7.964;2023-07-30T13:22:28;8.10;;;1.77;;
4839;SDS011;2434;48.486;7.964;2023-07-30T13:24:58;6.53;;;1.87;;
4839;SDS011;2434;48.486;7.964;2023-07-30T13:27:26;5.43;;;1.70;;
4839;SDS011;2434;48.486;7.964;2023-07-30T13:29:55;5.33;;;1.30;;
4839;SDS011;2434;48.486;7.964;2023-07-30T13:32:23;5.10;;;1.50;;
4839;SDS011;2434;48.486;7.964;2023-07-30T13:34:51;6.03;;;1.60;;
4839;SDS011;2434;48.486;7.964;2023-07-30T13:37:20;6.63;;;1.73;;
4839;SDS011;2434;48.486;7.964;2023-07-30T13:39:48;4.73;;;1.40;;
4839;SDS011;2434;48.486;7.964;2023-07-30T13:42:18;4.30;;;1.37;;
4839;SDS011;2434;48.486;7.964;2023-07-30T13:44:46;2.20;;;1.10;;
4839;SDS011;2434;48.486;7.964;2023-07-30T13:47:14;2.73;;;1.17;;
4839;SDS011;2434;48.486;7.964;2023-07-30T13:49:43;4.37;;;1.33;;
4839;SDS011;2434;48.486;7.964;2023-07-30T13:52:11;4.27;;;1.13;;
4839;SDS011;2434;48.486;7.964;2023-07-30T13:54:39;3.10;;;1.40;;
4839;SDS011;2434;48.486;7.964;2023-07-30T13:57:08;6.40;;;1.93;;
4839;SDS011;2434;48.486;7.964;2023-07-30T13:59:38;3.73;;;1.50;;
4839;SDS011;2434;48.486;7.964;2023-07-30T14:02:10;2.63;;;1.33;;
4839;SDS011;2434;48.486;7.964;2023-07-30T14:04:38;6.53;;;1.80;;
4839;SDS011;2434;48.486;7.964;2023-07-30T14:07:07;4.53;;;1.20;;
4839;SDS011;2434;48.486;7.964;2023-07-30T14:09:35;7.63;;;1.63;;
4839;SDS011;2434;48.486;7.964;2023-07-30T14:12:03;6.90;;;1.50;;
4839;SDS011;2434;48.486;7.964;2023-07-30T14:14:33;6.10;;;1.70;;
4839;SDS011;2434;48.486;7.964;2023-07-30T14:17:03;3.77;;;1.67;;
4839;SDS011;2434;48.486;7.964;2023-07-30T14:19:33;3.97;;;1.53;;
4839;SDS011;2434;48.486;7.964;2023-07-30T14:22:01;5.60;;;1.60;;
4839;SDS011;2434;48.486;7.964;2023-07-30T14:24:30;2.53;;;1.50;;
4839;SDS011;2434;48.486;7.964;2023-07-30T14:26:58;4.30;;;1.23;;
4839;SDS011;2434;48.486;7.964;2023-07-30T14:29:26;4.20;;;1.47;;
4839;SDS011;2434;48.486;7.964;2023-07-30T14:31:54;5.47;;;1.37;;
4839;SDS011;2434;48.486;7.964;2023-07-30T14:34:24;3.57;;;1.27;;
4839;SDS011;2434;48.486;7.964;2023-07-30T14:36:52;3.70;;;1.50;;
4839;SDS011;2434;48.486;7.964;2023-07-30T14:39:21;2.33;;;1.20;;
4839;SDS011;2434;48.486;7.964;2023-07-30T14:41:49;5.80;;;1.60;;
4839;SDS011;2434;48.486;7.964;2023-07-30T14:44:17;5.93;;;1.50;;
4839;SDS011;2434;48.486;7.964;2023-07-30T14:46:45;4.37;;;1.13;;
4839;SDS011;2434;48.486;7.964;2023-07-30T14:49:13;4.20;;;1.20;;
4839;SDS011;2434;48.486;7.964;2023-07-30T14:51:43;5.57;;;1.43;;
4839;SDS011;2434;48.486;7.964;2023-07-30T14:54:12;5.57;;;1.17;;
4839;SDS011;2434;48.486;7.964;2023-07-30T14:56:40;3.40;;;1.50;;
4839;SDS011;2434;48.486;7.964;2023-07-30T14:59:08;2.33;;;1.27;;
4839;SDS011;2434;48.486;7.964;2023-07-30T15:01:36;3.27;;;1.30;;
4839;SDS011;2434;48.486;7.964;2023-07-30T15:04:04;2.03;;;1.03;;
4839;SDS011;2434;48.486;7.964;2023-07-30T15:06:32;2.47;;;1.00;;
4839;SDS011;2434;48.486;7.964;2023-07-30T15:09:03;2.10;;;1.10;;
4839;SDS011;2434;48.486;7.964;2023-07-30T15:11:32;4.33;;;1.10;;
4839;SDS011;2434;48.486;7.964;2023-07-30T15:14:00;4.50;;;1.70;;
4839;SDS011;2434;48.486;7.964;2023-07-30T15:16:28;2.60;;;1.20;;
4839;SDS011;2434;48.486;7.964;2023-07-30T15:18:56;3.50;;;1.63;;
4839;SDS011;2434;48.486;7.964;2023-07-30T15:21:25;2.83;;;1.30;;
4839;SDS011;2434;48.486;7.964;2023-07-30T15:23:53;3.70;;;1.20;;
4839;SDS011;2434;48.486;7.964;2023-07-30T15:26:23;2.40;;;1.13;;